sensor_id;sensor_type;location;lat;lon;timestamp;P1;durP1;ratioP1;P2;durP2;ratioP2
9842;SDS011;4960;48.736;9.108;2022-10-31T00:01:09;9.07;;;3.17;;
9842;SDS011;4960;48.736;9.108;2022-10-31T00:03:36;5.00;;;2.90;;
9842;SDS011;4960;48.736;9.108;2022-10-31T00:06:03;6.50;;;2.83;;
9842;SDS011;4960;48.736;9.108;2022-10-31T00:08:31;5.40;;;2.70;;
9842;SDS011;4960;48.736;9.108;2022-10-31T00:10:59;7.33;;;2.63;;
9842;SDS011;4960;48.736;9.108;2022-10-31T00:13:26;6.17;;;2.57;;
9842;SDS011;4960;48.736;9.108;2022-10-31T00:15:53;6.00;;;2.93;;
9842;SDS011;4960;48.736;9.108;2022-10-31T00:18:20;4.23;;;2.70;;
9842;SDS011;4960;48.736;9.108;2022-10-31T00:20:47;8.73;;;3.17;;
9842;SDS011;4960;48.736;9.108;2022-10-31T00:23:14;8.57;;;2.83;;
9842;SDS011;4960;48.736;9.108;2022-10-31T00:25:43;6.83;;;2.70;;
9842;SDS011;4960;48.736;9.108;2022-10-31T00:28:10;4.63;;;2.93;;
9842;SDS011;4960;48.736;9.108;2022-10-31T00:30:38;8.93;;;2.83;;
9842;SDS011;4960;48.736;9.108;2022-10-31T00:33:05;6.70;;;2.83;;
9842;SDS011;4960;48.736;9.108;2022-10-31T00:35:32;8.70;;;2.90;;
9842;SDS011;4960;48.736;9.108;2022-10-31T00:37:59;5.30;;;2.70;;
9842;SDS011;4960;48.736;9.108;2022-10-31T00:40:26;4.77;;;2.60;;
9842;SDS011;4960;48.736;9.108;2022-10-31T00:42:55;6.70;;;2.83;;
9842;SDS011;4960;48.736;9.108;2022-10-31T00:45:22;4.70;;;2.70;;
9842;SDS011;4960;48.736;9.108;2022-10-31T00:47:49;6.53;;;2.90;;
9842;SDS011;4960;48.736;9.108;2022-10-31T00:50:16;5.43;;;2.83;;
9842;SDS011;4960;48.736;9.108;2022-10-31T00:52:43;8.20;;;2.83;;
9842;SDS011;4960;48.736;9.108;2022-10-31T00:55:10;6.63;;;2.83;;
9842;SDS011;4960;48.736;9.108;2022-10-31T00:57:37;6.17;;;3.10;;
9842;SDS011;4960;48.736;9.108;2022-10-31T01:00:07;4.93;;;2.97;;
9842;SDS011;4960;48.736;9.108;2022-10-31T01:02:34;6.07;;;2.93;;
9842;SDS011;4960;48.736;9.108;2022-10-31T01:05:01;6.03;;;2.87;;
9842;SDS011;4960;48.736;9.108;2022-10-31T01:07:28;6.60;;;3.33;;
9842;SDS011;4960;48.736;9.108;2022-10-31T01:09:55;9.20;;;3.30;;
9842;SDS011;4960;48.736;9.108;2022-10-31T01:12:22;6.77;;;3.23;;
9842;SDS011;4960;48.736;9.108;2022-10-31T01:14:50;9.47;;;3.23;;
9842;SDS011;4960;48.736;9.108;2022-10-31T01:17:18;8.50;;;3.03;;
9842;SDS011;4960;48.736;9.108;2022-10-31T01:19:45;6.00;;;2.80;;
9842;SDS011;4960;48.736;9.108;2022-10-31T01:22:12;6.47;;;2.60;;
9842;SDS011;4960;48.736;9.108;2022-10-31T01:24:39;6.83;;;2.90;;
9842;SDS011;4960;48.736;9.108;2022-10-31T01:27:07;11.73;;;3.50;;
9842;SDS011;4960;48.736;9.108;2022-10-31T01:29:34;8.67;;;3.10;;
9842;SDS011;4960;48.736;9.108;2022-10-31T01:32:01;8.80;;;3.00;;
9842;SDS011;4960;48.736;9.108;2022-10-31T01:34:30;5.67;;;3.20;;
9842;SDS011;4960;48.736;9.108;2022-10-31T01:36:57;6.13;;;3.47;;
9842;SDS011;4960;48.736;9.108;2022-10-31T01:39:24;5.97;;;3.10;;
9842;SDS011;4960;48.736;9.108;2022-10-31T01:41:51;6.63;;;3.03;;
9842;SDS011;4960;48.736;9.108;2022-10-31T01:47:05;7.53;;;2.90;;
9842;SDS011;4960;48.736;9.108;2022-10-31T01:49:35;7.00;;;2.90;;
9842;SDS011;4960;48.736;9.108;2022-10-31T01:52:04;6.90;;;2.80;;
9842;SDS011;4960;48.736;9.108;2022-10-31T01:54:34;6.87;;;3.20;;
9842;SDS011;4960;48.736;9.108;2022-10-31T01:57:02;7.37;;;2.93;;
9842;SDS011;4960;48.736;9.108;2022-10-31T01:59:32;6.03;;;2.73;;
9842;SDS011;4960;48.736;9.108;2022-10-31T02:02:03;6.13;;;2.90;;
9842;SDS011;4960;48.736;9.108;2022-10-31T02:04:30;5.27;;;2.67;;
9842;SDS011;4960;48.736;9.108;2022-10-31T02:06:59;5.30;;;2.93;;
9842;SDS011;4960;48.736;9.108;2022-10-31T02:09:27;7.83;;;3.03;;
9842;SDS011;4960;48.736;9.108;2022-10-31T02:11:56;8.57;;;3.03;;
9842;SDS011;4960;48.736;9.108;2022-10-31T02:14:24;5.60;;;2.37;;
9842;SDS011;4960;48.736;9.108;2022-10-31T02:16:52;7.90;;;3.10;;
9842;SDS011;4960;48.736;9.108;2022-10-31T02:19:21;7.83;;;2.90;;
9842;SDS011;4960;48.736;9.108;2022-10-31T02:21:52;5.67;;;2.77;;
9842;SDS011;4960;48.736;9.108;2022-10-31T02:24:39;8.60;;;2.80;;
9842;SDS011;4960;48.736;9.108;2022-10-31T02:27:10;11.30;;;2.83;;
9842;SDS011;4960;48.736;9.108;2022-10-31T02:29:55;9.23;;;2.90;;
9842;SDS011;4960;48.736;9.108;2022-10-31T02:32:32;5.83;;;2.70;;
9842;SDS011;4960;48.736;9.108;2022-10-31T02:35:05;4.43;;;2.70;;
9842;SDS011;4960;48.736;9.108;2022-10-31T02:37:37;11.87;;;3.20;;
9842;SDS011;4960;48.736;9.108;2022-10-31T02:40:06;8.17;;;2.90;;
9842;SDS011;4960;48.736;9.108;2022-10-31T02:42:37;7.67;;;2.80;;
9842;SDS011;4960;48.736;9.108;2022-10-31T02:45:07;9.23;;;3.20;;
9842;SDS011;4960;48.736;9.108;2022-10-31T02:47:37;9.50;;;3.60;;
9842;SDS011;4960;48.736;9.108;2022-10-31T02:50:06;7.37;;;3.20;;
9842;SDS011;4960;48.736;9.108;2022-10-31T02:52:34;13.00;;;3.50;;
9842;SDS011;4960;48.736;9.108;2022-10-31T02:55:09;5.83;;;3.00;;
9842;SDS011;4960;48.736;9.108;2022-10-31T02:57:36;6.23;;;2.67;;
9842;SDS011;4960;48.736;9.108;2022-10-31T03:00:05;5.57;;;2.80;;
9842;SDS011;4960;48.736;9.108;2022-10-31T03:02:38;6.37;;;3.40;;
9842;SDS011;4960;48.736;9.108;2022-10-31T03:05:23;6.33;;;2.80;;
9842;SDS011;4960;48.736;9.108;2022-10-31T03:07:53;6.57;;;2.60;;
9842;SDS011;4960;48.736;9.108;2022-10-31T03:10:25;5.93;;;2.90;;
9842;SDS011;4960;48.736;9.108;2022-10-31T03:12:57;5.37;;;2.50;;
9842;SDS011;4960;48.736;9.108;2022-10-31T03:15:26;7.17;;;3.03;;
9842;SDS011;4960;48.736;9.108;2022-10-31T03:17:57;6.77;;;2.40;;
9842;SDS011;4960;48.736;9.108;2022-10-31T03:20:28;3.33;;;2.80;;
9842;SDS011;4960;48.736;9.108;2022-10-31T03:22:56;5.57;;;3.07;;
9842;SDS011;4960;48.736;9.108;2022-10-31T03:25:24;5.50;;;3.00;;
9842;SDS011;4960;48.736;9.108;2022-10-31T03:27:52;5.07;;;2.70;;
9842;SDS011;4960;48.736;9.108;2022-10-31T03:30:20;5.93;;;3.00;;
9842;SDS011;4960;48.736;9.108;2022-10-31T03:32:48;4.30;;;2.40;;
9842;SDS011;4960;48.736;9.108;2022-10-31T03:35:17;7.60;;;3.20;;
9842;SDS011;4960;48.736;9.108;2022-10-31T03:37:46;6.70;;;2.77;;
9842;SDS011;4960;48.736;9.108;2022-10-31T03:40:13;7.93;;;3.10;;
9842;SDS011;4960;48.736;9.108;2022-10-31T03:42:43;8.37;;;3.17;;
9842;SDS011;4960;48.736;9.108;2022-10-31T03:45:13;5.80;;;2.67;;
9842;SDS011;4960;48.736;9.108;2022-10-31T03:47:41;8.37;;;2.57;;
9842;SDS011;4960;48.736;9.108;2022-10-31T03:50:10;8.87;;;3.00;;
9842;SDS011;4960;48.736;9.108;2022-10-31T03:52:41;4.50;;;2.80;;
9842;SDS011;4960;48.736;9.108;2022-10-31T03:55:10;4.33;;;2.90;;
9842;SDS011;4960;48.736;9.108;2022-10-31T03:57:39;7.43;;;3.23;;
9842;SDS011;4960;48.736;9.108;2022-10-31T04:00:09;7.47;;;2.93;;
9842;SDS011;4960;48.736;9.108;2022-10-31T04:02:38;5.37;;;2.60;;
9842;SDS011;4960;48.736;9.108;2022-10-31T04:05:07;6.40;;;3.00;;
9842;SDS011;4960;48.736;9.108;2022-10-31T04:07:35;4.53;;;2.50;;
9842;SDS011;4960;48.736;9.108;2022-10-31T04:10:06;7.50;;;2.60;;
9842;SDS011;4960;48.736;9.108;2022-10-31T04:12:34;9.40;;;3.00;;
9842;SDS011;4960;48.736;9.108;2022-10-31T04:15:03;6.70;;;2.87;;
9842;SDS011;4960;48.736;9.108;2022-10-31T04:17:31;8.10;;;3.00;;
9842;SDS011;4960;48.736;9.108;2022-10-31T04:19:59;7.70;;;2.93;;
9842;SDS011;4960;48.736;9.108;2022-10-31T04:22:27;6.37;;;3.00;;
9842;SDS011;4960;48.736;9.108;2022-10-31T04:24:54;5.90;;;2.60;;
9842;SDS011;4960;48.736;9.108;2022-10-31T04:27:22;6.53;;;3.20;;
9842;SDS011;4960;48.736;9.108;2022-10-31T04:29:49;3.83;;;2.73;;
9842;SDS011;4960;48.736;9.108;2022-10-31T04:32:16;6.43;;;2.87;;
9842;SDS011;4960;48.736;9.108;2022-10-31T04:34:44;7.33;;;3.07;;
9842;SDS011;4960;48.736;9.108;2022-10-31T04:37:11;4.50;;;2.83;;
9842;SDS011;4960;48.736;9.108;2022-10-31T04:39:38;5.43;;;2.90;;
9842;SDS011;4960;48.736;9.108;2022-10-31T04:42:05;5.93;;;3.03;;
9842;SDS011;4960;48.736;9.108;2022-10-31T04:44:33;5.17;;;2.77;;
9842;SDS011;4960;48.736;9.108;2022-10-31T04:47:01;6.43;;;3.47;;
9842;SDS011;4960;48.736;9.108;2022-10-31T04:49:28;7.10;;;3.57;;
9842;SDS011;4960;48.736;9.108;2022-10-31T04:51:55;6.77;;;2.90;;
9842;SDS011;4960;48.736;9.108;2022-10-31T04:54:22;4.90;;;3.13;;
9842;SDS011;4960;48.736;9.108;2022-10-31T04:56:49;5.83;;;3.07;;
9842;SDS011;4960;48.736;9.108;2022-10-31T04:59:16;10.63;;;3.20;;
9842;SDS011;4960;48.736;9.108;2022-10-31T05:01:45;4.87;;;2.93;;
9842;SDS011;4960;48.736;9.108;2022-10-31T05:04:12;6.23;;;2.60;;
9842;SDS011;4960;48.736;9.108;2022-10-31T05:06:39;6.50;;;3.20;;
9842;SDS011;4960;48.736;9.108;2022-10-31T05:09:06;5.33;;;3.00;;
9842;SDS011;4960;48.736;9.108;2022-10-31T05:11:33;4.17;;;2.67;;
9842;SDS011;4960;48.736;9.108;2022-10-31T05:14:00;7.73;;;2.97;;
9842;SDS011;4960;48.736;9.108;2022-10-31T05:16:27;4.17;;;2.90;;
9842;SDS011;4960;48.736;9.108;2022-10-31T05:18:56;9.83;;;3.17;;
9842;SDS011;4960;48.736;9.108;2022-10-31T05:21:23;8.47;;;3.17;;
9842;SDS011;4960;48.736;9.108;2022-10-31T05:23:50;5.10;;;3.63;;
9842;SDS011;4960;48.736;9.108;2022-10-31T05:26:18;6.57;;;3.10;;
9842;SDS011;4960;48.736;9.108;2022-10-31T05:28:45;9.00;;;3.30;;
9842;SDS011;4960;48.736;9.108;2022-10-31T05:31:12;8.73;;;3.40;;
9842;SDS011;4960;48.736;9.108;2022-10-31T05:33:39;11.07;;;2.97;;
9842;SDS011;4960;48.736;9.108;2022-10-31T05:36:08;8.23;;;3.17;;
9842;SDS011;4960;48.736;9.108;2022-10-31T05:38:35;7.30;;;3.00;;
9842;SDS011;4960;48.736;9.108;2022-10-31T05:41:02;6.70;;;3.73;;
9842;SDS011;4960;48.736;9.108;2022-10-31T05:43:29;6.03;;;3.37;;
9842;SDS011;4960;48.736;9.108;2022-10-31T05:45:56;6.27;;;3.70;;
9842;SDS011;4960;48.736;9.108;2022-10-31T05:48:24;6.97;;;3.77;;
9842;SDS011;4960;48.736;9.108;2022-10-31T05:50:51;8.93;;;3.50;;
9842;SDS011;4960;48.736;9.108;2022-10-31T05:53:19;9.60;;;3.37;;
9842;SDS011;4960;48.736;9.108;2022-10-31T05:55:46;6.00;;;3.50;;
9842;SDS011;4960;48.736;9.108;2022-10-31T05:58:13;4.77;;;3.20;;
9842;SDS011;4960;48.736;9.108;2022-10-31T06:00:41;4.67;;;3.10;;
9842;SDS011;4960;48.736;9.108;2022-10-31T06:03:08;9.90;;;3.70;;
9842;SDS011;4960;48.736;9.108;2022-10-31T06:05:35;6.93;;;3.00;;
9842;SDS011;4960;48.736;9.108;2022-10-31T06:08:03;9.47;;;3.70;;
9842;SDS011;4960;48.736;9.108;2022-10-31T06:10:31;8.07;;;3.80;;
9842;SDS011;4960;48.736;9.108;2022-10-31T06:12:58;7.07;;;3.23;;
9842;SDS011;4960;48.736;9.108;2022-10-31T06:15:25;3.87;;;3.17;;
9842;SDS011;4960;48.736;9.108;2022-10-31T06:17:59;8.60;;;3.83;;
9842;SDS011;4960;48.736;9.108;2022-10-31T06:20:27;5.73;;;3.50;;
9842;SDS011;4960;48.736;9.108;2022-10-31T06:22:54;3.73;;;2.87;;
9842;SDS011;4960;48.736;9.108;2022-10-31T06:25:21;10.30;;;4.13;;
9842;SDS011;4960;48.736;9.108;2022-10-31T06:27:49;7.67;;;3.43;;
9842;SDS011;4960;48.736;9.108;2022-10-31T06:30:17;8.63;;;3.50;;
9842;SDS011;4960;48.736;9.108;2022-10-31T06:32:44;6.20;;;3.57;;
9842;SDS011;4960;48.736;9.108;2022-10-31T06:35:11;12.00;;;3.90;;
9842;SDS011;4960;48.736;9.108;2022-10-31T06:37:38;8.80;;;3.37;;
9842;SDS011;4960;48.736;9.108;2022-10-31T06:40:06;6.63;;;3.50;;
9842;SDS011;4960;48.736;9.108;2022-10-31T06:42:33;6.87;;;3.87;;
9842;SDS011;4960;48.736;9.108;2022-10-31T06:45:01;6.57;;;3.80;;
9842;SDS011;4960;48.736;9.108;2022-10-31T06:47:29;5.63;;;3.67;;
9842;SDS011;4960;48.736;9.108;2022-10-31T06:49:56;8.43;;;3.77;;
9842;SDS011;4960;48.736;9.108;2022-10-31T06:52:23;7.67;;;4.00;;
9842;SDS011;4960;48.736;9.108;2022-10-31T06:54:50;10.00;;;4.13;;
9842;SDS011;4960;48.736;9.108;2022-10-31T06:57:17;9.20;;;4.10;;
9842;SDS011;4960;48.736;9.108;2022-10-31T06:59:44;7.57;;;3.67;;
9842;SDS011;4960;48.736;9.108;2022-10-31T07:02:13;11.90;;;3.80;;
9842;SDS011;4960;48.736;9.108;2022-10-31T07:04:40;6.90;;;3.80;;
9842;SDS011;4960;48.736;9.108;2022-10-31T07:07:07;7.10;;;4.03;;
9842;SDS011;4960;48.736;9.108;2022-10-31T07:09:34;8.20;;;4.67;;
9842;SDS011;4960;48.736;9.108;2022-10-31T07:12:01;13.10;;;4.20;;
9842;SDS011;4960;48.736;9.108;2022-10-31T07:14:28;9.63;;;5.07;;
9842;SDS011;4960;48.736;9.108;2022-10-31T07:16:55;10.03;;;4.57;;
9842;SDS011;4960;48.736;9.108;2022-10-31T07:19:24;13.33;;;4.50;;
9842;SDS011;4960;48.736;9.108;2022-10-31T07:21:51;12.13;;;4.40;;
9842;SDS011;4960;48.736;9.108;2022-10-31T07:24:18;9.87;;;4.43;;
9842;SDS011;4960;48.736;9.108;2022-10-31T07:26:45;7.83;;;4.30;;
9842;SDS011;4960;48.736;9.108;2022-10-31T07:29:14;7.70;;;4.33;;
9842;SDS011;4960;48.736;9.108;2022-10-31T07:31:41;9.40;;;4.53;;
9842;SDS011;4960;48.736;9.108;2022-10-31T07:34:09;7.83;;;4.37;;
9842;SDS011;4960;48.736;9.108;2022-10-31T07:36:37;6.30;;;4.03;;
9842;SDS011;4960;48.736;9.108;2022-10-31T07:39:04;5.10;;;4.00;;
9842;SDS011;4960;48.736;9.108;2022-10-31T07:41:31;7.40;;;4.47;;
9842;SDS011;4960;48.736;9.108;2022-10-31T07:43:58;8.33;;;4.27;;
9842;SDS011;4960;48.736;9.108;2022-10-31T07:46:26;9.93;;;4.70;;
9842;SDS011;4960;48.736;9.108;2022-10-31T07:48:53;7.63;;;3.63;;
9842;SDS011;4960;48.736;9.108;2022-10-31T07:51:20;11.50;;;3.93;;
9842;SDS011;4960;48.736;9.108;2022-10-31T07:53:50;7.17;;;4.67;;
9842;SDS011;4960;48.736;9.108;2022-10-31T07:56:17;5.87;;;3.47;;
9842;SDS011;4960;48.736;9.108;2022-10-31T07:58:44;4.73;;;3.77;;
9842;SDS011;4960;48.736;9.108;2022-10-31T08:01:11;10.37;;;3.90;;
9842;SDS011;4960;48.736;9.108;2022-10-31T08:03:39;6.93;;;3.37;;
9842;SDS011;4960;48.736;9.108;2022-10-31T08:06:06;7.63;;;3.30;;
9842;SDS011;4960;48.736;9.108;2022-10-31T08:08:33;6.93;;;3.20;;
9842;SDS011;4960;48.736;9.108;2022-10-31T08:11:02;6.13;;;3.33;;
9842;SDS011;4960;48.736;9.108;2022-10-31T08:13:29;4.60;;;3.00;;
9842;SDS011;4960;48.736;9.108;2022-10-31T08:15:57;6.30;;;3.23;;
9842;SDS011;4960;48.736;9.108;2022-10-31T08:18:28;8.30;;;2.93;;
9842;SDS011;4960;48.736;9.108;2022-10-31T08:20:55;11.73;;;3.43;;
9842;SDS011;4960;48.736;9.108;2022-10-31T08:23:22;5.93;;;3.00;;
9842;SDS011;4960;48.736;9.108;2022-10-31T08:25:50;8.10;;;4.17;;
9842;SDS011;4960;48.736;9.108;2022-10-31T08:28:18;7.07;;;3.03;;
9842;SDS011;4960;48.736;9.108;2022-10-31T08:30:45;5.93;;;2.97;;
9842;SDS011;4960;48.736;9.108;2022-10-31T08:33:13;9.53;;;3.00;;
9842;SDS011;4960;48.736;9.108;2022-10-31T08:35:41;8.40;;;4.03;;
9842;SDS011;4960;48.736;9.108;2022-10-31T08:38:08;8.20;;;3.20;;
9842;SDS011;4960;48.736;9.108;2022-10-31T08:40:35;6.97;;;2.80;;
9842;SDS011;4960;48.736;9.108;2022-10-31T08:43:03;6.47;;;3.17;;
9842;SDS011;4960;48.736;9.108;2022-10-31T08:45:33;6.67;;;3.00;;
9842;SDS011;4960;48.736;9.108;2022-10-31T08:48:01;4.47;;;3.10;;
9842;SDS011;4960;48.736;9.108;2022-10-31T08:50:29;9.07;;;2.90;;
9842;SDS011;4960;48.736;9.108;2022-10-31T08:52:59;6.97;;;3.80;;
9842;SDS011;4960;48.736;9.108;2022-10-31T08:55:27;13.37;;;4.57;;
9842;SDS011;4960;48.736;9.108;2022-10-31T08:57:54;9.23;;;4.47;;
9842;SDS011;4960;48.736;9.108;2022-10-31T09:00:22;12.43;;;4.70;;
9842;SDS011;4960;48.736;9.108;2022-10-31T09:02:55;11.30;;;4.00;;
9842;SDS011;4960;48.736;9.108;2022-10-31T09:05:22;11.70;;;4.50;;
9842;SDS011;4960;48.736;9.108;2022-10-31T09:07:50;9.03;;;4.10;;
9842;SDS011;4960;48.736;9.108;2022-10-31T09:10:17;14.43;;;5.53;;
9842;SDS011;4960;48.736;9.108;2022-10-31T09:12:44;22.63;;;5.77;;
9842;SDS011;4960;48.736;9.108;2022-10-31T09:15:11;8.53;;;5.40;;
9842;SDS011;4960;48.736;9.108;2022-10-31T09:17:38;11.37;;;5.87;;
9842;SDS011;4960;48.736;9.108;2022-10-31T09:20:07;10.63;;;5.63;;
9842;SDS011;4960;48.736;9.108;2022-10-31T09:22:35;16.37;;;6.07;;
9842;SDS011;4960;48.736;9.108;2022-10-31T09:25:02;9.70;;;5.23;;
9842;SDS011;4960;48.736;9.108;2022-10-31T09:27:29;16.73;;;7.67;;
9842;SDS011;4960;48.736;9.108;2022-10-31T09:29:56;23.87;;;11.60;;
9842;SDS011;4960;48.736;9.108;2022-10-31T09:32:23;21.93;;;10.73;;
9842;SDS011;4960;48.736;9.108;2022-10-31T09:34:51;27.53;;;10.87;;
9842;SDS011;4960;48.736;9.108;2022-10-31T09:37:19;22.43;;;11.10;;
9842;SDS011;4960;48.736;9.108;2022-10-31T09:39:46;20.73;;;10.20;;
9842;SDS011;4960;48.736;9.108;2022-10-31T09:44:57;18.70;;;8.93;;
9842;SDS011;4960;48.736;9.108;2022-10-31T09:47:30;20.37;;;8.17;;
9842;SDS011;4960;48.736;9.108;2022-10-31T09:50:03;18.23;;;7.23;;
9842;SDS011;4960;48.736;9.108;2022-10-31T09:52:35;14.20;;;6.57;;
9842;SDS011;4960;48.736;9.108;2022-10-31T09:55:04;12.73;;;6.13;;
9842;SDS011;4960;48.736;9.108;2022-10-31T09:57:32;16.40;;;5.50;;
9842;SDS011;4960;48.736;9.108;2022-10-31T10:00:00;11.10;;;4.43;;
9842;SDS011;4960;48.736;9.108;2022-10-31T10:02:29;15.80;;;4.33;;
9842;SDS011;4960;48.736;9.108;2022-10-31T10:04:58;7.97;;;4.13;;
9842;SDS011;4960;48.736;9.108;2022-10-31T10:07:29;7.93;;;3.70;;
9842;SDS011;4960;48.736;9.108;2022-10-31T10:09:58;15.67;;;4.43;;
9842;SDS011;4960;48.736;9.108;2022-10-31T10:12:29;7.70;;;3.93;;
9842;SDS011;4960;48.736;9.108;2022-10-31T10:15:07;10.87;;;4.40;;
9842;SDS011;4960;48.736;9.108;2022-10-31T10:17:42;8.40;;;3.50;;
9842;SDS011;4960;48.736;9.108;2022-10-31T10:20:15;10.10;;;3.97;;
9842;SDS011;4960;48.736;9.108;2022-10-31T10:22:46;9.90;;;3.67;;
9842;SDS011;4960;48.736;9.108;2022-10-31T10:25:20;6.47;;;2.90;;
9842;SDS011;4960;48.736;9.108;2022-10-31T10:28:00;7.37;;;4.00;;
9842;SDS011;4960;48.736;9.108;2022-10-31T10:30:31;7.70;;;3.83;;
9842;SDS011;4960;48.736;9.108;2022-10-31T10:33:00;10.33;;;4.00;;
9842;SDS011;4960;48.736;9.108;2022-10-31T10:35:30;13.10;;;3.43;;
9842;SDS011;4960;48.736;9.108;2022-10-31T10:37:59;9.63;;;3.30;;
9842;SDS011;4960;48.736;9.108;2022-10-31T10:40:30;8.90;;;3.73;;
9842;SDS011;4960;48.736;9.108;2022-10-31T10:43:01;11.70;;;3.70;;
9842;SDS011;4960;48.736;9.108;2022-10-31T10:45:46;12.67;;;4.33;;
9842;SDS011;4960;48.736;9.108;2022-10-31T10:48:36;6.07;;;4.03;;
9842;SDS011;4960;48.736;9.108;2022-10-31T10:51:08;8.77;;;3.57;;
9842;SDS011;4960;48.736;9.108;2022-10-31T10:53:39;9.73;;;3.20;;
9842;SDS011;4960;48.736;9.108;2022-10-31T10:56:30;5.57;;;3.23;;
9842;SDS011;4960;48.736;9.108;2022-10-31T10:58:59;7.90;;;3.77;;
9842;SDS011;4960;48.736;9.108;2022-10-31T11:01:27;11.07;;;4.13;;
9842;SDS011;4960;48.736;9.108;2022-10-31T11:03:54;8.30;;;4.30;;
9842;SDS011;4960;48.736;9.108;2022-10-31T11:06:22;6.43;;;3.93;;
9842;SDS011;4960;48.736;9.108;2022-10-31T11:08:51;10.60;;;4.47;;
9842;SDS011;4960;48.736;9.108;2022-10-31T11:11:29;19.97;;;5.87;;
9842;SDS011;4960;48.736;9.108;2022-10-31T11:13:57;9.43;;;4.93;;
9842;SDS011;4960;48.736;9.108;2022-10-31T11:16:30;11.47;;;5.17;;
9842;SDS011;4960;48.736;9.108;2022-10-31T11:19:08;12.63;;;5.03;;
9842;SDS011;4960;48.736;9.108;2022-10-31T11:21:35;15.93;;;4.93;;
9842;SDS011;4960;48.736;9.108;2022-10-31T11:24:03;9.23;;;4.73;;
9842;SDS011;4960;48.736;9.108;2022-10-31T11:26:31;10.37;;;4.90;;
9842;SDS011;4960;48.736;9.108;2022-10-31T11:29:00;14.40;;;5.13;;
9842;SDS011;4960;48.736;9.108;2022-10-31T11:31:28;13.90;;;5.20;;
9842;SDS011;4960;48.736;9.108;2022-10-31T11:33:57;7.80;;;4.60;;
9842;SDS011;4960;48.736;9.108;2022-10-31T11:36:25;11.03;;;4.67;;
9842;SDS011;4960;48.736;9.108;2022-10-31T11:38:53;11.47;;;4.77;;
9842;SDS011;4960;48.736;9.108;2022-10-31T11:41:24;6.97;;;3.63;;
9842;SDS011;4960;48.736;9.108;2022-10-31T11:43:54;7.97;;;4.13;;
9842;SDS011;4960;48.736;9.108;2022-10-31T11:46:30;10.73;;;5.07;;
9842;SDS011;4960;48.736;9.108;2022-10-31T11:48:59;7.67;;;4.10;;
9842;SDS011;4960;48.736;9.108;2022-10-31T11:51:27;9.40;;;3.97;;
9842;SDS011;4960;48.736;9.108;2022-10-31T11:53:56;6.17;;;3.70;;
9842;SDS011;4960;48.736;9.108;2022-10-31T11:56:24;9.73;;;4.53;;
9842;SDS011;4960;48.736;9.108;2022-10-31T11:58:56;8.17;;;3.90;;
9842;SDS011;4960;48.736;9.108;2022-10-31T12:01:24;7.50;;;5.20;;
9842;SDS011;4960;48.736;9.108;2022-10-31T12:03:54;8.37;;;3.87;;
9842;SDS011;4960;48.736;9.108;2022-10-31T12:06:27;9.27;;;4.43;;
9842;SDS011;4960;48.736;9.108;2022-10-31T12:08:55;11.10;;;4.80;;
9842;SDS011;4960;48.736;9.108;2022-10-31T12:14:15;9.10;;;4.43;;
9842;SDS011;4960;48.736;9.108;2022-10-31T12:16:46;11.53;;;4.60;;
9842;SDS011;4960;48.736;9.108;2022-10-31T12:19:17;8.33;;;4.10;;
9842;SDS011;4960;48.736;9.108;2022-10-31T12:21:50;10.03;;;4.43;;
9842;SDS011;4960;48.736;9.108;2022-10-31T12:24:23;10.30;;;4.57;;
9842;SDS011;4960;48.736;9.108;2022-10-31T12:26:56;8.33;;;3.63;;
9842;SDS011;4960;48.736;9.108;2022-10-31T12:29:31;8.97;;;4.40;;
9842;SDS011;4960;48.736;9.108;2022-10-31T12:32:03;9.40;;;4.37;;
9842;SDS011;4960;48.736;9.108;2022-10-31T12:34:45;11.50;;;4.30;;
9842;SDS011;4960;48.736;9.108;2022-10-31T12:37:15;11.90;;;4.47;;
9842;SDS011;4960;48.736;9.108;2022-10-31T12:39:49;10.67;;;4.10;;
9842;SDS011;4960;48.736;9.108;2022-10-31T12:42:20;9.07;;;4.30;;
9842;SDS011;4960;48.736;9.108;2022-10-31T12:45:05;9.07;;;4.67;;
9842;SDS011;4960;48.736;9.108;2022-10-31T12:50:20;13.37;;;4.90;;
9842;SDS011;4960;48.736;9.108;2022-10-31T12:52:56;13.10;;;5.37;;
9842;SDS011;4960;48.736;9.108;2022-10-31T12:58:14;10.03;;;4.47;;
9842;SDS011;4960;48.736;9.108;2022-10-31T13:00:45;9.40;;;5.07;;
9842;SDS011;4960;48.736;9.108;2022-10-31T13:03:17;8.27;;;4.97;;
9842;SDS011;4960;48.736;9.108;2022-10-31T13:05:46;6.53;;;4.33;;
9842;SDS011;4960;48.736;9.108;2022-10-31T13:08:15;10.73;;;4.53;;
9842;SDS011;4960;48.736;9.108;2022-10-31T13:10:44;9.67;;;4.67;;
9842;SDS011;4960;48.736;9.108;2022-10-31T13:13:13;10.83;;;4.30;;
9842;SDS011;4960;48.736;9.108;2022-10-31T13:15:47;9.60;;;4.30;;
9842;SDS011;4960;48.736;9.108;2022-10-31T13:18:17;9.57;;;4.40;;
9842;SDS011;4960;48.736;9.108;2022-10-31T13:20:46;7.77;;;4.00;;
9842;SDS011;4960;48.736;9.108;2022-10-31T13:23:26;6.37;;;3.63;;
9842;SDS011;4960;48.736;9.108;2022-10-31T13:25:56;9.33;;;4.03;;
9842;SDS011;4960;48.736;9.108;2022-10-31T13:28:24;11.23;;;4.47;;
9842;SDS011;4960;48.736;9.108;2022-10-31T13:30:54;10.87;;;4.20;;
9842;SDS011;4960;48.736;9.108;2022-10-31T13:33:24;8.80;;;3.77;;
9842;SDS011;4960;48.736;9.108;2022-10-31T13:35:56;7.97;;;4.37;;
9842;SDS011;4960;48.736;9.108;2022-10-31T13:38:30;12.77;;;4.50;;
9842;SDS011;4960;48.736;9.108;2022-10-31T13:41:00;10.37;;;4.90;;
9842;SDS011;4960;48.736;9.108;2022-10-31T13:43:31;7.87;;;4.80;;
9842;SDS011;4960;48.736;9.108;2022-10-31T13:46:01;12.90;;;4.80;;
9842;SDS011;4960;48.736;9.108;2022-10-31T13:48:35;11.17;;;4.50;;
9842;SDS011;4960;48.736;9.108;2022-10-31T13:51:04;10.00;;;4.00;;
9842;SDS011;4960;48.736;9.108;2022-10-31T13:53:39;7.03;;;4.30;;
9842;SDS011;4960;48.736;9.108;2022-10-31T13:56:13;9.10;;;4.17;;
9842;SDS011;4960;48.736;9.108;2022-10-31T13:58:41;9.80;;;4.23;;
9842;SDS011;4960;48.736;9.108;2022-10-31T14:01:22;8.70;;;4.00;;
9842;SDS011;4960;48.736;9.108;2022-10-31T14:03:55;10.87;;;3.90;;
9842;SDS011;4960;48.736;9.108;2022-10-31T14:06:23;11.70;;;3.90;;
9842;SDS011;4960;48.736;9.108;2022-10-31T14:09:01;7.17;;;4.10;;
9842;SDS011;4960;48.736;9.108;2022-10-31T14:11:28;6.47;;;3.77;;
9842;SDS011;4960;48.736;9.108;2022-10-31T14:13:56;10.60;;;3.60;;
9842;SDS011;4960;48.736;9.108;2022-10-31T14:16:26;7.40;;;3.87;;
9842;SDS011;4960;48.736;9.108;2022-10-31T14:18:57;10.67;;;4.40;;
9842;SDS011;4960;48.736;9.108;2022-10-31T14:21:26;11.57;;;4.43;;
9842;SDS011;4960;48.736;9.108;2022-10-31T14:23:54;6.33;;;4.60;;
9842;SDS011;4960;48.736;9.108;2022-10-31T14:26:32;8.73;;;5.27;;
9842;SDS011;4960;48.736;9.108;2022-10-31T14:29:00;11.03;;;4.97;;
9842;SDS011;4960;48.736;9.108;2022-10-31T14:31:30;10.90;;;5.17;;
9842;SDS011;4960;48.736;9.108;2022-10-31T14:34:00;12.60;;;4.73;;
9842;SDS011;4960;48.736;9.108;2022-10-31T14:36:30;11.67;;;4.57;;
9842;SDS011;4960;48.736;9.108;2022-10-31T14:39:01;9.87;;;4.03;;
9842;SDS011;4960;48.736;9.108;2022-10-31T14:41:35;7.63;;;3.90;;
9842;SDS011;4960;48.736;9.108;2022-10-31T14:44:10;10.40;;;4.33;;
9842;SDS011;4960;48.736;9.108;2022-10-31T14:46:44;15.17;;;4.90;;
9842;SDS011;4960;48.736;9.108;2022-10-31T14:49:25;14.80;;;4.77;;
9842;SDS011;4960;48.736;9.108;2022-10-31T14:51:54;11.90;;;4.47;;
9842;SDS011;4960;48.736;9.108;2022-10-31T14:54:26;9.23;;;5.00;;
9842;SDS011;4960;48.736;9.108;2022-10-31T14:56:55;10.50;;;4.47;;
9842;SDS011;4960;48.736;9.108;2022-10-31T14:59:25;11.87;;;4.60;;
9842;SDS011;4960;48.736;9.108;2022-10-31T15:01:57;9.40;;;4.20;;
9842;SDS011;4960;48.736;9.108;2022-10-31T15:04:26;11.10;;;5.17;;
9842;SDS011;4960;48.736;9.108;2022-10-31T15:06:57;10.10;;;4.13;;
9842;SDS011;4960;48.736;9.108;2022-10-31T15:09:27;12.17;;;4.33;;
9842;SDS011;4960;48.736;9.108;2022-10-31T15:11:54;9.33;;;4.87;;
9842;SDS011;4960;48.736;9.108;2022-10-31T15:14:23;9.60;;;4.30;;
9842;SDS011;4960;48.736;9.108;2022-10-31T15:16:50;11.43;;;4.23;;
9842;SDS011;4960;48.736;9.108;2022-10-31T15:19:21;17.00;;;4.67;;
9842;SDS011;4960;48.736;9.108;2022-10-31T15:21:50;10.50;;;4.57;;
9842;SDS011;4960;48.736;9.108;2022-10-31T15:24:17;11.70;;;4.73;;
9842;SDS011;4960;48.736;9.108;2022-10-31T15:26:47;10.73;;;4.30;;
9842;SDS011;4960;48.736;9.108;2022-10-31T15:29:15;13.07;;;4.30;;
9842;SDS011;4960;48.736;9.108;2022-10-31T15:31:49;14.17;;;4.53;;
9842;SDS011;4960;48.736;9.108;2022-10-31T15:34:19;9.10;;;4.50;;
9842;SDS011;4960;48.736;9.108;2022-10-31T15:36:48;10.47;;;4.33;;